Time;durP1;ratioP1;P1;durP2;ratioP2;P2;SDS_P1;SDS_P2;PMS_P1;PMS_P2;Temp;Humidity;BMP_temperature;BMP_pressure;BME280_temperature;BME280_humidity;BME280_pressure;Samples;Min_cycle;Max_cycle;Signal;HPM_P1;HPM_P2
2023/09/27 00:00:09;;;;;;;5.45;5.00;;;15.20;99.90;;;;;;5075438;28;20201;-76
2023/09/27 00:02:37;;;;;;;6.72;5.13;;;15.20;99.90;;;;;;5074096;28;20318;-76
2023/09/27 00:05:07;;;;;;;11.02;5.35;;;15.10;99.90;;;;;;5073924;28;20552;-76
2023/09/27 00:07:36;;;;;;;7.30;4.65;;;15.10;99.90;;;;;;5070475;28;20265;-76
2023/09/27 00:10:09;;;;;;;5.93;5.13;;;15.10;99.90;;;;;;5068122;28;20206;-76
2023/09/27 00:12:36;;;;;;;7.85;4.93;;;15.00;99.90;;;;;;5067664;28;20496;-76
2023/09/27 00:15:07;;;;;;;5.85;4.93;;;14.90;99.90;;;;;;5074032;28;20239;-76
2023/09/27 00:17:36;;;;;;;7.63;4.57;;;14.90;99.90;;;;;;5071417;28;20233;-76
2023/09/27 00:20:05;;;;;;;9.20;4.80;;;14.80;99.90;;;;;;5051593;28;20667;-76
2023/09/27 00:22:33;;;;;;;6.90;4.88;;;14.80;99.90;;;;;;5075025;28;20236;-76
2023/09/27 00:25:01;;;;;;;6.55;4.43;;;14.80;99.90;;;;;;5071691;28;20209;-76
2023/09/27 00:27:31;;;;;;;4.75;4.43;;;14.80;99.90;;;;;;5064281;28;20225;-76
2023/09/27 00:29:59;;;;;;;5.60;5.10;;;14.80;99.90;;;;;;5076319;28;20287;-77
2023/09/27 00:32:27;;;;;;;7.20;4.90;;;14.70;99.90;;;;;;5077676;28;20205;-77
2023/09/27 00:34:55;;;;;;;7.10;4.32;;;14.70;99.90;;;;;;5052843;28;20233;-78
2023/09/27 00:37:23;;;;;;;5.38;4.88;;;14.70;99.90;;;;;;5067991;28;20553;-77
2023/09/27 00:39:51;;;;;;;5.25;4.75;;;14.60;99.90;;;;;;5069427;28;20235;-77
2023/09/27 00:42:19;;;;;;;4.95;4.63;;;14.60;99.90;;;;;;5069775;28;20252;-77
2023/09/27 00:44:48;;;;;;;6.18;4.35;;;14.50;99.90;;;;;;5069062;28;20285;-77
2023/09/27 00:47:16;;;;;;;7.28;5.00;;;14.50;99.90;;;;;;5065024;28;20777;-77
2023/09/27 00:49:44;;;;;;;6.68;5.00;;;14.50;99.90;;;;;;5060644;28;20200;-77
2023/09/27 00:52:13;;;;;;;9.05;5.03;;;14.50;99.90;;;;;;5061621;28;20204;-77
2023/09/27 00:54:41;;;;;;;5.97;5.07;;;14.40;99.90;;;;;;5070713;28;20274;-77
2023/09/27 00:57:09;;;;;;;4.90;4.50;;;14.40;99.90;;;;;;5068231;28;20321;-77
2023/09/27 00:59:36;;;;;;;7.88;4.53;;;14.30;99.90;;;;;;5075430;28;20200;-77
2023/09/27 01:02:06;;;;;;;5.03;4.57;;;14.30;99.90;;;;;;5077935;28;20323;-77
2023/09/27 01:04:34;;;;;;;5.57;4.57;;;14.30;99.90;;;;;;5074454;28;20300;-77
2023/09/27 01:07:02;;;;;;;6.55;4.78;;;14.30;99.90;;;;;;5069674;28;20249;-77
2023/09/27 01:09:32;;;;;;;4.90;4.47;;;14.30;99.90;;;;;;5072329;28;20285;-77
2023/09/27 01:12:00;;;;;;;6.68;5.38;;;14.30;99.90;;;;;;5065891;28;20205;-77
2023/09/27 01:14:28;;;;;;;5.82;3.95;;;14.20;99.90;;;;;;5075467;28;20300;-77
2023/09/27 01:16:56;;;;;;;4.75;4.32;;;14.20;99.90;;;;;;5062750;28;20275;-78
2023/09/27 01:19:25;;;;;;;4.78;4.32;;;14.10;99.90;;;;;;5055475;28;20206;-77
2023/09/27 01:21:53;;;;;;;5.90;4.22;;;14.00;99.90;;;;;;5067468;28;20225;-78
2023/09/27 01:24:23;;;;;;;4.72;4.32;;;14.00;99.90;;;;;;5070999;28;20209;-78
2023/09/27 01:26:51;;;;;;;6.30;4.20;;;14.00;99.90;;;;;;5068476;28;20233;-79
2023/09/27 01:29:19;;;;;;;7.90;3.92;;;14.00;99.90;;;;;;5065958;28;20285;-77
2023/09/27 01:31:46;;;;;;;6.78;4.70;;;14.00;99.90;;;;;;5070567;28;20206;-78
2023/09/27 01:34:14;;;;;;;7.72;4.07;;;13.90;99.90;;;;;;5066416;28;20490;-77
2023/09/27 01:36:42;;;;;;;5.05;4.10;;;13.90;99.90;;;;;;5078660;28;20256;-78
2023/09/27 01:39:10;;;;;;;4.18;3.75;;;13.90;99.90;;;;;;5076715;28;20274;-77
2023/09/27 01:41:39;;;;;;;4.47;4.18;;;13.90;99.90;;;;;;5071053;28;20752;-77
2023/09/27 01:44:07;;;;;;;4.07;3.70;;;13.80;99.90;;;;;;5081253;28;20216;-76
2023/09/27 01:46:35;;;;;;;7.00;3.90;;;13.80;99.90;;;;;;5080075;28;20663;-75
2023/09/27 01:49:04;;;;;;;5.40;3.72;;;13.70;99.90;;;;;;5073761;28;20210;-75
2023/09/27 01:51:32;;;;;;;4.68;4.25;;;13.70;99.90;;;;;;5075644;28;20254;-76
2023/09/27 01:54:00;;;;;;;4.97;4.00;;;13.70;99.90;;;;;;5090633;28;20618;-76
2023/09/27 01:56:27;;;;;;;9.40;4.07;;;13.70;99.90;;;;;;5078807;28;20233;-76
2023/09/27 01:58:57;;;;;;;6.72;4.10;;;13.70;99.90;;;;;;5073086;28;20224;-76
2023/09/27 02:01:25;;;;;;;6.20;4.20;;;13.60;99.90;;;;;;5074778;28;20209;-76
2023/09/27 02:03:53;;;;;;;4.38;3.97;;;13.60;99.90;;;;;;5074225;28;20215;-76
2023/09/27 02:06:22;;;;;;;4.07;3.83;;;13.60;99.90;;;;;;5087101;28;20209;-76
2023/09/27 02:08:50;;;;;;;3.72;3.38;;;13.60;99.90;;;;;;5078084;28;20203;-76
2023/09/27 02:11:19;;;;;;;3.80;3.53;;;13.50;99.90;;;;;;5070366;28;20212;-76
2023/09/27 02:13:47;;;;;;;4.07;3.78;;;13.50;99.90;;;;;;5070454;28;20216;-77
2023/09/27 02:16:17;;;;;;;4.18;3.50;;;13.50;99.90;;;;;;5077385;28;20462;-76
2023/09/27 02:18:45;;;;;;;5.38;3.78;;;13.50;99.90;;;;;;5082417;28;20224;-76
2023/09/27 02:21:14;;;;;;;3.88;3.40;;;13.50;99.90;;;;;;5075407;28;20240;-76
2023/09/27 02:23:41;;;;;;;4.05;3.75;;;13.50;99.90;;;;;;5077558;28;20233;-76
2023/09/27 02:26:10;;;;;;;4.05;3.75;;;13.40;99.90;;;;;;5072892;28;20210;-77
2023/09/27 02:28:38;;;;;;;5.13;3.95;;;13.40;99.90;;;;;;5066744;28;20311;-77
2023/09/27 02:31:09;;;;;;;6.75;3.90;;;13.40;99.90;;;;;;5072495;28;20288;-77
2023/09/27 02:33:39;;;;;;;5.75;3.97;;;13.30;99.90;;;;;;5073013;28;20707;-77
2023/09/27 02:36:08;;;;;;;5.40;4.00;;;13.30;99.90;;;;;;5073205;28;20630;-77
2023/09/27 02:38:36;;;;;;;7.63;4.10;;;13.30;99.90;;;;;;5071458;28;20236;-77
2023/09/27 02:41:04;;;;;;;4.63;4.32;;;13.30;99.90;;;;;;5071345;28;20319;-77
2023/09/27 02:43:32;;;;;;;4.50;4.07;;;13.20;99.90;;;;;;5075478;28;20229;-77
2023/09/27 02:46:00;;;;;;;5.75;4.45;;;13.20;99.90;;;;;;5072887;28;20671;-79
2023/09/27 02:48:29;;;;;;;7.40;4.60;;;13.20;99.90;;;;;;5065672;28;20240;-79
2023/09/27 02:50:58;;;;;;;4.95;4.18;;;13.20;99.90;;;;;;5080771;28;20296;-78
2023/09/27 02:53:26;;;;;;;4.30;3.90;;;13.10;99.90;;;;;;5080425;28;20270;-78
2023/09/27 02:55:54;;;;;;;8.68;4.22;;;13.10;99.90;;;;;;5077176;28;20653;-78
2023/09/27 02:58:22;;;;;;;4.53;4.15;;;13.10;99.90;;;;;;5063452;28;20221;-78
2023/09/27 03:00:50;;;;;;;4.47;4.10;;;13.00;99.90;;;;;;5083978;28;20267;-78
2023/09/27 03:03:19;;;;;;;6.97;4.40;;;13.00;99.90;;;;;;5075176;28;20240;-78
2023/09/27 03:05:47;;;;;;;5.32;4.20;;;13.00;99.90;;;;;;5080067;28;20594;-77
2023/09/27 03:08:16;;;;;;;8.35;4.20;;;13.00;99.90;;;;;;5071579;28;20336;-77
2023/09/27 03:10:44;;;;;;;4.82;3.75;;;13.00;99.90;;;;;;5078302;28;20261;-76
2023/09/27 03:13:12;;;;;;;4.90;4.20;;;13.00;99.90;;;;;;5080215;28;20305;-76
2023/09/27 03:15:41;;;;;;;5.63;3.95;;;13.00;99.90;;;;;;5080833;28;20309;-78
2023/09/27 03:18:09;;;;;;;4.18;3.80;;;12.90;99.90;;;;;;5075719;28;20246;-78
2023/09/27 03:20:37;;;;;;;4.78;3.63;;;12.90;99.90;;;;;;5085275;28;20228;-77
2023/09/27 03:23:06;;;;;;;5.03;3.95;;;12.90;99.90;;;;;;5078936;28;20224;-77
2023/09/27 03:25:36;;;;;;;4.28;3.88;;;12.90;99.90;;;;;;5078798;28;20215;-76
2023/09/27 03:28:04;;;;;;;4.68;3.88;;;12.90;99.90;;;;;;5070259;28;20322;-77
2023/09/27 03:30:32;;;;;;;4.85;4.38;;;12.80;99.90;;;;;;5071021;28;20237;-77
2023/09/27 03:33:01;;;;;;;4.75;4.32;;;12.80;99.90;;;;;;5079898;28;20747;-77
2023/09/27 03:35:29;;;;;;;6.35;4.25;;;12.80;99.90;;;;;;5071917;28;20213;-77
2023/09/27 03:37:57;;;;;;;4.18;3.88;;;12.80;99.90;;;;;;5069112;28;20221;-77
2023/09/27 03:40:25;;;;;;;6.43;3.80;;;12.80;99.90;;;;;;5076017;28;20208;-76
2023/09/27 03:42:54;;;;;;;4.57;3.90;;;12.80;99.90;;;;;;5072677;28;20286;-77
2023/09/27 03:45:22;;;;;;;7.22;4.07;;;12.80;99.90;;;;;;5071669;28;20258;-77
2023/09/27 03:47:49;;;;;;;6.22;4.43;;;12.70;99.90;;;;;;5070352;28;20764;-76
2023/09/27 03:50:18;;;;;;;4.47;4.18;;;12.70;99.90;;;;;;5070842;28;20201;-76
2023/09/27 03:52:46;;;;;;;6.20;4.65;;;12.50;99.90;;;;;;5071306;28;20208;-76
2023/09/27 03:55:14;;;;;;;5.43;4.90;;;12.50;99.90;;;;;;5073902;28;20364;-76
2023/09/27 03:57:42;;;;;;;5.95;4.68;;;12.50;99.90;;;;;;5079669;28;20263;-76
2023/09/27 04:00:14;;;;;;;5.30;4.80;;;12.50;99.90;;;;;;5080787;28;20204;-76
2023/09/27 04:02:42;;;;;;;7.88;4.95;;;12.50;99.90;;;;;;5070537;28;20321;-77
2023/09/27 04:05:11;;;;;;;8.25;4.85;;;12.50;99.90;;;;;;5079675;28;20205;-78
2023/09/27 04:07:40;;;;;;;6.68;4.80;;;12.40;99.90;;;;;;5079573;28;20252;-78
2023/09/27 04:10:08;;;;;;;6.78;4.80;;;12.40;99.90;;;;;;5084946;28;20215;-78
2023/09/27 04:12:37;;;;;;;7.40;4.57;;;12.30;99.90;;;;;;5080168;28;20235;-79
2023/09/27 04:15:08;;;;;;;7.07;4.70;;;12.30;99.90;;;;;;5080772;28;20239;-77
2023/09/27 04:17:38;;;;;;;5.85;5.25;;;12.30;99.90;;;;;;5077991;28;20220;-76
2023/09/27 04:20:13;;;;;;;5.28;4.85;;;12.30;99.90;;;;;;5072293;28;20201;-76
2023/09/27 04:22:44;;;;;;;5.03;4.72;;;12.30;99.90;;;;;;5078225;28;20236;-77
2023/09/27 04:25:13;;;;;;;5.28;4.78;;;12.20;99.90;;;;;;5070252;28;20196;-77
2023/09/27 04:27:41;;;;;;;5.68;4.57;;;12.30;99.90;;;;;;5077049;28;20229;-77
2023/09/27 04:30:12;;;;;;;5.15;4.63;;;12.30;99.90;;;;;;5080283;28;20258;-76
2023/09/27 04:32:42;;;;;;;5.60;5.03;;;12.30;99.90;;;;;;5075782;28;20715;-76
2023/09/27 04:35:10;;;;;;;8.32;4.55;;;12.30;99.90;;;;;;5082985;28;20232;-77
2023/09/27 04:37:38;;;;;;;7.80;4.95;;;12.30;99.90;;;;;;5068532;28;20323;-75
2023/09/27 04:40:09;;;;;;;5.32;4.43;;;12.40;99.90;;;;;;5077835;28;20244;-74
2023/09/27 04:42:37;;;;;;;5.20;4.80;;;12.30;99.90;;;;;;5079578;28;20201;-77
2023/09/27 04:45:07;;;;;;;5.28;4.80;;;12.20;99.90;;;;;;5073101;28;20229;-74
2023/09/27 04:47:35;;;;;;;5.32;4.80;;;12.20;99.90;;;;;;5071283;28;20777;-76
2023/09/27 04:50:06;;;;;;;7.55;4.65;;;12.20;99.90;;;;;;5082615;28;20299;-74
2023/09/27 04:52:35;;;;;;;4.55;4.25;;;12.20;99.90;;;;;;5076435;28;20201;-76
2023/09/27 04:55:04;;;;;;;5.97;5.03;;;12.20;99.90;;;;;;5071820;28;20197;-79
2023/09/27 04:57:32;;;;;;;5.60;5.10;;;12.20;99.90;;;;;;5078949;28;20225;-79
2023/09/27 04:59:59;;;;;;;7.82;4.78;;;12.20;99.90;;;;;;5069002;28;20205;-78
2023/09/27 05:02:27;;;;;;;4.95;4.45;;;12.20;99.90;;;;;;5072255;28;20317;-78
2023/09/27 05:04:55;;;;;;;5.10;4.45;;;12.20;99.90;;;;;;5075724;28;20228;-79
2023/09/27 05:07:25;;;;;;;5.47;4.97;;;12.20;99.90;;;;;;5068009;28;20539;-78
2023/09/27 05:09:53;;;;;;;6.22;5.15;;;12.20;99.90;;;;;;5069805;28;20197;-78
2023/09/27 05:12:21;;;;;;;9.57;5.22;;;12.10;99.90;;;;;;5077342;28;20205;-78
2023/09/27 05:14:49;;;;;;;6.95;5.05;;;12.10;99.90;;;;;;5078817;28;20301;-78
2023/09/27 05:17:17;;;;;;;5.65;5.15;;;12.20;99.90;;;;;;5086351;28;20228;-78
2023/09/27 05:19:45;;;;;;;7.25;5.28;;;12.10;99.90;;;;;;5064794;28;21860;-78
2023/09/27 05:22:14;;;;;;;7.63;4.85;;;12.20;99.90;;;;;;5075501;28;20262;-78
2023/09/27 05:24:43;;;;;;;5.05;4.65;;;12.10;99.90;;;;;;5070460;28;20598;-78
2023/09/27 05:27:11;;;;;;;4.63;4.20;;;12.10;99.90;;;;;;5072013;28;20255;-74
2023/09/27 05:29:39;;;;;;;4.40;4.00;;;12.10;99.90;;;;;;5073531;28;20292;-77
2023/09/27 05:32:07;;;;;;;4.93;4.50;;;12.00;99.90;;;;;;5074523;28;20209;-76
2023/09/27 05:34:35;;;;;;;4.35;4.05;;;12.10;99.90;;;;;;5062191;28;20202;-77
2023/09/27 05:37:03;;;;;;;4.70;4.07;;;12.00;99.90;;;;;;5071352;28;20312;-77
2023/09/27 05:39:31;;;;;;;4.85;4.38;;;12.00;99.90;;;;;;5073045;28;20557;-77
2023/09/27 05:42:01;;;;;;;7.57;4.35;;;12.00;99.90;;;;;;5072362;28;20728;-77
2023/09/27 05:44:28;;;;;;;7.25;5.70;;;12.00;99.90;;;;;;5065681;28;20714;-77
2023/09/27 05:46:56;;;;;;;5.18;4.75;;;12.00;99.90;;;;;;5065712;28;20217;-79
2023/09/27 05:49:25;;;;;;;6.47;4.82;;;12.10;99.90;;;;;;5054047;28;20234;-75
2023/09/27 05:51:53;;;;;;;5.55;5.15;;;12.10;99.90;;;;;;5069423;28;20262;-76
2023/09/27 05:54:21;;;;;;;7.22;4.90;;;12.10;99.90;;;;;;5072430;28;20247;-76
2023/09/27 05:56:51;;;;;;;5.38;4.68;;;12.10;99.90;;;;;;5074120;28;20318;-78
2023/09/27 05:59:22;;;;;;;5.28;4.55;;;12.10;99.90;;;;;;5065605;28;20220;-76
2023/09/27 06:01:51;;;;;;;5.50;5.00;;;12.00;99.90;;;;;;5064523;28;20204;-76
2023/09/27 06:04:19;;;;;;;5.40;4.60;;;12.10;99.90;;;;;;5072673;28;20228;-76
2023/09/27 06:06:48;;;;;;;6.25;5.22;;;12.10;99.90;;;;;;5073774;28;20706;-76
2023/09/27 06:09:16;;;;;;;6.45;4.80;;;12.10;99.90;;;;;;5071991;28;20216;-77
2023/09/27 06:11:45;;;;;;;6.45;5.50;;;12.10;99.90;;;;;;5074269;28;20600;-75
2023/09/27 06:14:13;;;;;;;5.30;4.82;;;12.10;99.90;;;;;;5070028;28;20231;-76
2023/09/27 06:16:44;;;;;;;5.45;5.00;;;12.20;99.90;;;;;;5053787;28;20559;-76
2023/09/27 06:19:12;;;;;;;4.72;4.15;;;12.20;99.90;;;;;;5053592;28;20300;-75
2023/09/27 06:21:40;;;;;;;5.70;5.20;;;12.20;99.90;;;;;;5062213;28;20548;-75
2023/09/27 06:24:09;;;;;;;4.72;4.43;;;12.20;99.90;;;;;;5062260;28;20226;-76
2023/09/27 06:26:36;;;;;;;5.30;4.88;;;12.30;99.90;;;;;;5060533;28;20758;-76
2023/09/27 06:29:04;;;;;;;4.50;4.20;;;12.30;99.90;;;;;;5052667;28;20566;-76
2023/09/27 06:31:34;;;;;;;6.38;4.40;;;12.30;99.90;;;;;;5053380;28;20206;-76
2023/09/27 06:34:03;;;;;;;5.20;4.60;;;12.30;99.90;;;;;;5053486;28;20209;-78
2023/09/27 06:36:34;;;;;;;5.20;4.80;;;12.30;99.90;;;;;;5065743;28;20258;-75
2023/09/27 06:39:04;;;;;;;9.95;4.97;;;12.40;99.90;;;;;;5063150;28;20556;-76
2023/09/27 06:41:35;;;;;;;4.75;4.35;;;12.40;99.90;;;;;;5064830;28;20290;-75
2023/09/27 06:44:04;;;;;;;4.50;4.10;;;12.50;99.90;;;;;;5071539;28;20217;-75
2023/09/27 06:46:32;;;;;;;4.43;4.10;;;12.60;99.90;;;;;;5073012;28;20197;-76
2023/09/27 06:49:17;;;;;;;6.25;4.57;;;12.70;99.90;;;;;;5071893;28;20209;-79
2023/09/27 06:51:45;;;;;;;5.55;4.63;;;12.80;99.90;;;;;;5069821;28;20208;-76
2023/09/27 06:54:13;;;;;;;5.30;4.72;;;12.90;99.90;;;;;;5062335;28;20243;-76
2023/09/27 06:56:42;;;;;;;6.70;6.20;;;13.00;99.90;;;;;;5066021;28;20201;-76
2023/09/27 06:59:10;;;;;;;5.85;5.05;;;13.00;99.90;;;;;;5072626;28;20205;-80
2023/09/27 07:01:41;;;;;;;10.30;7.55;;;13.10;99.90;;;;;;5064476;28;20197;-76
2023/09/27 07:04:09;;;;;;;14.07;10.07;;;13.20;99.90;;;;;;5072345;28;20201;-76
2023/09/27 07:06:38;;;;;;;10.05;9.10;;;13.30;99.90;;;;;;5065424;28;20205;-76
2023/09/27 07:09:12;;;;;;;8.93;8.15;;;13.40;99.90;;;;;;5063941;28;20663;-76
2023/09/27 07:11:42;;;;;;;10.38;9.27;;;13.50;99.90;;;;;;5059778;28;20251;-77
2023/09/27 07:14:10;;;;;;;12.25;10.95;;;13.60;99.90;;;;;;5061045;28;20293;-75
2023/09/27 07:16:38;;;;;;;10.80;9.80;;;13.80;99.90;;;;;;5065880;28;20205;-75
2023/09/27 07:19:26;;;;;;;15.82;10.93;;;13.90;99.90;;;;;;5063203;28;20209;-77
2023/09/27 07:21:55;;;;;;;12.25;10.80;;;14.00;99.90;;;;;;5057617;28;20626;-78
2023/09/27 07:24:23;;;;;;;11.52;10.35;;;14.10;99.90;;;;;;5062723;28;20209;-75
2023/09/27 07:26:52;;;;;;;11.43;10.23;;;14.20;99.90;;;;;;5072478;28;20225;-77
2023/09/27 07:29:21;;;;;;;11.13;9.82;;;14.20;99.90;;;;;;5063707;28;20252;-78
2023/09/27 07:31:49;;;;;;;10.68;9.20;;;14.30;99.90;;;;;;5068822;28;20201;-80
2023/09/27 07:34:18;;;;;;;10.70;9.65;;;14.30;99.90;;;;;;5069425;28;20213;-79
2023/09/27 07:36:46;;;;;;;10.02;9.13;;;14.40;99.90;;;;;;5065236;28;20229;-76
2023/09/27 07:39:16;;;;;;;11.35;9.45;;;14.50;99.90;;;;;;5061752;28;20229;-76
2023/09/27 07:41:44;;;;;;;10.60;9.60;;;14.60;99.90;;;;;;5070823;28;20258;-76
2023/09/27 07:44:12;;;;;;;12.32;10.73;;;14.70;99.90;;;;;;5071552;28;20209;-76
2023/09/27 07:46:40;;;;;;;10.23;9.23;;;14.80;99.90;;;;;;5068001;28;20224;-75
2023/09/27 07:49:09;;;;;;;11.57;10.02;;;14.90;99.90;;;;;;5069591;28;20229;-76
2023/09/27 07:51:36;;;;;;;12.45;10.35;;;15.00;99.90;;;;;;5071820;28;20196;-75
2023/09/27 07:54:08;;;;;;;11.35;10.07;;;15.10;99.90;;;;;;5065789;28;20251;-76
2023/09/27 07:56:39;;;;;;;9.63;8.73;;;15.20;99.90;;;;;;5058477;28;20650;-76
2023/09/27 07:59:08;;;;;;;10.32;9.20;;;15.20;99.90;;;;;;5071116;28;20208;-76
2023/09/27 08:01:37;;;;;;;13.13;10.82;;;15.30;99.90;;;;;;5051801;28;20210;-78
2023/09/27 08:04:06;;;;;;;11.80;10.70;;;15.40;99.90;;;;;;5067402;28;20280;-76
2023/09/27 08:06:39;;;;;;;12.88;10.52;;;15.50;99.90;;;;;;5062978;28;20224;-75
2023/09/27 08:09:07;;;;;;;13.55;10.18;;;15.60;99.90;;;;;;5066686;28;20209;-75
2023/09/27 08:11:45;;;;;;;12.23;9.98;;;15.70;99.90;;;;;;5071621;28;20743;-76
2023/09/27 08:14:16;;;;;;;16.08;9.07;;;15.80;99.90;;;;;;5063360;28;20209;-75
2023/09/27 08:16:44;;;;;;;11.88;10.68;;;16.00;99.90;;;;;;5068542;28;20622;-80
2023/09/27 08:19:14;;;;;;;11.52;9.63;;;16.10;99.90;;;;;;5070053;28;20209;-75
2023/09/27 08:21:42;;;;;;;13.65;11.43;;;16.20;99.90;;;;;;5065732;28;20206;-76
2023/09/27 08:24:09;;;;;;;13.57;10.90;;;16.30;99.90;;;;;;5067639;28;20209;-76
2023/09/27 08:26:37;;;;;;;13.32;10.75;;;16.30;99.90;;;;;;5071319;28;20760;-75
2023/09/27 08:29:07;;;;;;;12.20;10.27;;;16.40;99.90;;;;;;5063074;28;20267;-78
2023/09/27 08:31:37;;;;;;;11.43;10.35;;;16.50;99.90;;;;;;5059886;28;20205;-76
2023/09/27 08:34:05;;;;;;;14.30;11.15;;;16.70;99.90;;;;;;5065719;28;20215;-80
2023/09/27 08:36:33;;;;;;;14.32;12.60;;;16.80;99.90;;;;;;5062849;28;20205;-76
2023/09/27 08:39:02;;;;;;;17.73;14.10;;;16.90;99.90;;;;;;5055912;28;20237;-76
2023/09/27 08:41:30;;;;;;;18.02;15.10;;;16.90;99.90;;;;;;5070320;28;20205;-78
2023/09/27 08:43:58;;;;;;;15.25;13.27;;;17.00;99.90;;;;;;5061729;28;20666;-76
2023/09/27 08:46:27;;;;;;;17.85;13.98;;;17.10;99.90;;;;;;5062615;28;20272;-75
2023/09/27 08:48:57;;;;;;;17.10;13.93;;;17.20;99.90;;;;;;5064479;28;20201;-76
2023/09/27 08:51:27;;;;;;;20.90;13.13;;;17.20;99.90;;;;;;5067295;28;20659;-75
2023/09/27 08:53:55;;;;;;;13.80;12.05;;;17.40;99.90;;;;;;5062674;28;20206;-80
2023/09/27 08:56:24;;;;;;;17.42;15.38;;;17.60;99.90;;;;;;5064034;28;20198;-78
2023/09/27 08:58:52;;;;;;;14.85;13.07;;;17.80;99.90;;;;;;5071972;28;20622;-76
2023/09/27 09:01:21;;;;;;;18.05;14.57;;;17.90;99.90;;;;;;5074450;28;20216;-78
2023/09/27 09:03:50;;;;;;;15.23;13.45;;;18.10;99.90;;;;;;5075240;28;20211;-80
2023/09/27 09:06:18;;;;;;;14.48;13.02;;;18.30;99.90;;;;;;5066998;28;20225;-76
2023/09/27 09:08:46;;;;;;;17.65;14.23;;;18.50;99.90;;;;;;5074695;28;20715;-76
2023/09/27 09:11:17;;;;;;;18.33;15.30;;;18.70;99.90;;;;;;5074689;28;20619;-76
2023/09/27 09:13:54;;;;;;;16.30;12.90;;;18.90;99.90;;;;;;5067873;28;20204;-78
2023/09/27 09:16:24;;;;;;;13.57;12.13;;;19.10;99.90;;;;;;5074858;28;20209;-77
2023/09/27 09:18:54;;;;;;;15.70;14.10;;;19.30;99.90;;;;;;5060816;28;20660;-76
2023/09/27 09:21:25;;;;;;;14.38;12.93;;;19.60;99.90;;;;;;5064171;28;20212;-79
2023/09/27 09:23:53;;;;;;;14.30;11.05;;;19.80;99.90;;;;;;5065487;28;20200;-77
2023/09/27 09:26:29;;;;;;;13.07;11.70;;;20.10;99.90;;;;;;5056528;28;20229;-80
2023/09/27 09:29:00;;;;;;;17.13;12.02;;;20.30;99.90;;;;;;5068796;28;20234;-78
2023/09/27 09:31:29;;;;;;;14.18;12.73;;;20.60;99.90;;;;;;5066708;28;20620;-77
2023/09/27 09:34:05;;;;;;;11.85;10.50;;;20.90;99.90;;;;;;5063735;28;20209;-76
2023/09/27 09:36:33;;;;;;;17.90;15.82;;;21.20;99.90;;;;;;5060268;28;20235;-75
2023/09/27 09:39:05;;;;;;;21.38;17.35;;;21.40;99.90;;;;;;5065210;28;20291;-76
2023/09/27 09:41:57;;;;;;;19.33;16.00;;;21.50;99.90;;;;;;5063618;28;20220;-76
2023/09/27 09:44:25;;;;;;;17.23;15.35;;;21.80;99.90;;;;;;5057548;28;20213;-76
2023/09/27 09:46:53;;;;;;;16.33;14.60;;;22.00;99.90;;;;;;5053115;28;20608;-76
2023/09/27 09:49:22;;;;;;;15.75;13.57;;;22.30;99.90;;;;;;5070329;28;20879;-76
2023/09/27 09:51:52;;;;;;;23.05;17.40;;;22.50;99.90;;;;;;5065848;28;20631;-76
2023/09/27 09:54:27;;;;;;;20.00;16.23;;;22.80;99.90;;;;;;5055674;28;20211;-76
2023/09/27 09:56:57;;;;;;;18.67;15.98;;;23.00;99.90;;;;;;5061498;28;20773;-75
2023/09/27 09:59:45;;;;;;;20.23;16.58;;;23.10;99.90;;;;;;5073094;28;20204;-78
2023/09/27 10:02:19;;;;;;;18.95;15.57;;;23.50;99.90;;;;;;5066265;28;20291;-76
2023/09/27 10:04:55;;;;;;;18.33;16.33;;;23.70;99.90;;;;;;5057841;28;20201;-76
2023/09/27 10:07:24;;;;;;;18.83;16.83;;;23.80;99.90;;;;;;5057248;28;20328;-79
2023/09/27 10:09:53;;;;;;;19.45;17.55;;;23.90;99.90;;;;;;5060710;28;20206;-75
2023/09/27 10:12:22;;;;;;;18.75;15.18;;;23.70;99.90;;;;;;5062098;28;20204;-78
2023/09/27 10:14:50;;;;;;;16.60;14.23;;;23.70;99.90;;;;;;5062259;28;20613;-76
2023/09/27 10:17:21;;;;;;;15.77;13.13;;;23.70;99.90;;;;;;5070849;28;20311;-76
2023/09/27 10:22:43;;;;;;;19.00;13.95;;;23.70;99.90;;;;;;5088439;28;20585;-65
2023/09/27 10:25:31;;;;;;;15.80;13.68;;;23.90;99.90;;;;;;5068648;28;20286;-65
2023/09/27 10:28:09;;;;;;;16.27;13.38;;;23.80;99.90;;;;;;5068364;28;20233;-64
2023/09/27 10:31:05;;;;;;;17.60;14.18;;;23.40;99.90;;;;;;5068251;28;20710;-63
2023/09/27 10:33:34;;;;;;;15.45;13.90;;;23.30;99.90;;;;;;5068385;28;20286;-63
2023/09/27 10:36:27;;;;;;;23.50;13.98;;;23.60;99.90;;;;;;5068550;28;20286;-65
2023/09/27 10:39:05;;;;;;;13.43;11.05;;;24.20;99.90;;;;;;5067940;28;20250;-64
2023/09/27 10:41:48;;;;;;;16.02;14.35;;;24.90;99.90;;;;;;5067937;28;20224;-64
2023/09/27 10:44:31;;;;;;;17.25;14.57;;;25.30;99.90;;;;;;5081298;22;20221;-59
2023/09/27 10:47:04;;;;;;;14.98;10.90;;;25.70;99.90;;;;;;5042782;28;20662;-59
2023/09/27 10:49:38;;;;;;;12.25;11.13;;;26.10;99.90;;;;;;5048055;28;20307;-60
2023/09/27 10:52:15;;;;;;;13.10;11.82;;;26.50;99.90;;;;;;5048796;28;20288;-59
2023/09/27 10:54:44;;;;;;;12.30;11.00;;;26.90;99.90;;;;;;5054931;28;20317;-58
2023/09/27 10:57:14;;;;;;;14.48;9.95;;;27.00;99.90;;;;;;5068247;28;20205;-58
2023/09/27 10:59:44;;;;;;;11.18;9.93;;;26.80;99.90;;;;;;5067776;28;20208;-60
2023/09/27 11:02:11;;;;;;;9.45;8.60;;;26.50;99.90;;;;;;5068093;28;20249;-59
2023/09/27 11:04:40;;;;;;;11.10;9.93;;;26.20;99.90;;;;;;5067916;28;20220;-60
2023/09/27 11:07:08;;;;;;;11.40;10.20;;;25.70;99.90;;;;;;5068151;28;20262;-59
2023/09/27 11:09:46;;;;;;;14.82;9.63;;;25.10;99.90;;;;;;5067714;28;20278;-60
2023/09/27 11:12:21;;;;;;;13.55;9.77;;;24.70;99.90;;;;;;5067980;28;20205;-60
2023/09/27 11:14:48;;;;;;;10.15;8.88;;;24.70;99.90;;;;;;5067550;28;20697;-58
2023/09/27 11:17:17;;;;;;;13.13;9.45;;;25.10;99.90;;;;;;5067976;28;20205;-58
2023/09/27 11:19:45;;;;;;;16.45;10.38;;;25.50;99.90;;;;;;5067520;28;20259;-59
2023/09/27 11:22:13;;;;;;;11.68;10.57;;;25.80;99.90;;;;;;5067804;28;20260;-58
2023/09/27 11:24:41;;;;;;;10.23;9.13;;;26.10;99.90;;;;;;5067446;28;20644;-60
2023/09/27 11:27:11;;;;;;;13.88;11.30;;;26.60;99.90;;;;;;5067461;28;20646;-58
2023/09/27 11:29:39;;;;;;;11.07;9.85;;;27.00;99.90;;;;;;5067258;28;20557;-60
2023/09/27 11:32:07;;;;;;;12.10;10.88;;;27.40;99.90;;;;;;5065124;28;20202;-58
2023/09/27 11:34:35;;;;;;;11.80;10.07;;;27.60;99.90;;;;;;5054013;28;20224;-60
2023/09/27 11:37:05;;;;;;;10.60;9.45;;;27.90;99.90;;;;;;5054370;28;20229;-59
2023/09/27 11:39:48;;;;;;;8.93;7.70;;;28.20;99.90;;;;;;5053863;28;20210;-59
2023/09/27 11:42:21;;;;;;;8.68;7.65;;;28.60;99.90;;;;;;5054318;28;20267;-60
2023/09/27 11:45:01;;;;;;;11.52;8.75;;;29.20;99.90;;;;;;5053870;28;20654;-61
2023/09/27 11:47:29;;;;;;;8.63;8.00;;;29.50;99.90;;;;;;5053889;28;20201;-61
2023/09/27 11:49:57;;;;;;;9.90;8.90;;;29.70;99.90;;;;;;5053850;28;20263;-61
2023/09/27 11:52:25;;;;;;;9.70;8.50;;;29.90;99.90;;;;;;5053782;28;20221;-59
2023/09/27 11:54:53;;;;;;;9.68;8.85;;;30.00;99.90;;;;;;5053688;28;20761;-61
2023/09/27 11:57:22;;;;;;;10.77;9.82;;;30.10;99.90;;;;;;5053881;28;20202;-60
2023/09/27 11:59:51;;;;;;;9.60;8.52;;;30.20;99.90;;;;;;5045812;28;20201;-60
2023/09/27 12:02:21;;;;;;;9.65;8.63;;;30.40;99.90;;;;;;5053779;28;20225;-61
2023/09/27 12:04:57;;;;;;;11.55;8.85;;;30.50;99.90;;;;;;5053650;28;20228;-59
2023/09/27 12:07:27;;;;;;;10.50;8.05;;;30.60;99.90;;;;;;5053499;28;20205;-59
2023/09/27 12:09:55;;;;;;;8.48;7.63;;;30.70;99.90;;;;;;5053489;28;20723;-58
2023/09/27 12:12:24;;;;;;;12.57;6.82;;;30.70;99.90;;;;;;5053626;28;20225;-59
2023/09/27 12:14:52;;;;;;;9.07;5.60;;;30.80;99.90;;;;;;5053277;28;20287;-57
2023/09/27 12:17:22;;;;;;;7.00;6.40;;;30.80;99.90;;;;;;5053307;28;20284;-57
2023/09/27 12:19:50;;;;;;;6.88;6.13;;;30.80;99.90;;;;;;5053107;28;20663;-58
2023/09/27 12:22:19;;;;;;;7.30;6.35;;;31.00;99.90;;;;;;5053460;28;20335;-56
2023/09/27 12:24:47;;;;;;;12.80;5.28;;;31.10;99.90;;;;;;5053105;28;20316;-57
2023/09/27 12:27:16;;;;;;;7.15;6.07;;;31.10;99.90;;;;;;5053237;28;20347;-56
2023/09/27 12:29:45;;;;;;;5.55;5.05;;;31.20;99.90;;;;;;5052781;28;20210;-58
2023/09/27 12:32:13;;;;;;;5.07;4.70;;;31.10;99.90;;;;;;5053454;28;20220;-57
2023/09/27 12:34:41;;;;;;;5.05;4.65;;;30.90;99.90;;;;;;5053013;28;20658;-57
2023/09/27 12:37:09;;;;;;;6.60;3.40;;;30.90;99.90;;;;;;5053165;28;20240;-57
2023/09/27 12:39:37;;;;;;;6.53;4.50;;;31.10;99.90;;;;;;5052695;28;20205;-57
2023/09/27 12:42:05;;;;;;;5.13;4.72;;;31.40;99.90;;;;;;5052915;28;20221;-58
2023/09/27 12:44:33;;;;;;;4.35;4.00;;;31.30;99.90;;;;;;5051438;28;20771;-58
2023/09/27 12:47:02;;;;;;;5.43;4.65;;;31.30;99.90;;;;;;5053179;28;20252;-58
2023/09/27 12:49:30;;;;;;;5.30;4.80;;;31.40;99.90;;;;;;5052361;28;20232;-58
2023/09/27 12:51:58;;;;;;;5.72;5.05;;;31.40;99.90;;;;;;5052962;28;20205;-59
2023/09/27 12:54:26;;;;;;;5.28;4.85;;;31.30;99.90;;;;;;5052570;28;20295;-58